METAR Data
IDs: Format: Raw Decoded Include TAF

Data at: 0854 UTC 20 Sep 2018

KVTN 200852Z AUTO 09012KT 7SM RA FEW060 BKN090 OVC110 14/14 A2984 RMK AO2 SLP094 P0018 60051 T01440139 58014
KVTN 200830Z AUTO 08009KT 5SM RA BR FEW006 BKN033 OVC085 14/14 A2988 RMK AO2 P0012 T01440139
KVTN 200815Z AUTO 06009KT 7SM RA SCT006 BKN015 OVC085 14/14 A2988 RMK AO2 P0007 T01440139
KVTN 200752Z AUTO 03011KT 7SM RA OVC007 14/14 A2986 RMK AO2 LTG DSNT S SLP101 P0013 T01440139
KVTN 200705Z AUTO 05015KT 5SM RA BR BKN006 OVC010 16/15 A2987 RMK AO2 LTG DSNT N AND SE AND S P0004 T01560150
KVTN 200652Z AUTO 04014KT 4SM RA BR OVC008 16/15 A2989 RMK AO2 LTG DSNT N AND SE AND S SLP111 P0020 T01560150
KVTN 200627Z AUTO 04007KT 4SM RA BR OVC005 16/15 A2992 RMK AO2 LTG DSNT ALQDS CIG 004V008 P0010 T01560150
KVTN 200552Z AUTO 05015G25KT 8SM -RA OVC003 16/15 A2988 RMK AO2 LTG DSNT S AND NW RAB50 SLP109 P0000 60008 T01560150 10189 20156 401940156 58007
KVTN 200534Z AUTO 05013G21KT 8SM OVC004 16/15 A2987 RMK AO2 LTG DSNT N AND W T01560150
KVTN 200452Z AUTO 04014KT 10SM OVC005 16/15 A2988 RMK AO2 LTG DSNT W-N RAE14 SLP108 P0002 T01560150
KVTN 200359Z AUTO 06013G22KT 3SM -RA BR BKN005 BKN008 OVC012 16/16 A2991 RMK AO2 LTG DSNT NE P0001 T01610156
KVTN 200352Z AUTO 06017G22KT 1 1/2SM RA BR OVC005 16/16 A2992 RMK AO2 LTG DSNT NE AND E RAB0257E07B34 SLP121 P0004 T01610156
KVTN 200347Z AUTO 06013KT 1 3/4SM RA BR OVC005 16/16 A2992 RMK AO2 LTG DSNT E RAB0257E07B34 P0002
KVTN 200325Z AUTO 05013G21KT 5SM BR OVC005 16/16 A2992 RMK AO2 LTG DSNT E AND SE RAB0257E07 P0000 T01610156
KVTN 200252Z AUTO 04016G23KT 3SM BR OVC004 16/16 A2991 RMK AO2 LTG DSNT E AND SE SLP117 60002 T01610156 53012
KVTN 200152Z AUTO 02013G20KT 4SM BR OVC005 17/16 A2988 RMK AO2 RAE01 SLP109 P0000 T01670156
KVTN 200052Z AUTO 03013KT 4SM -RA BR OVC005 17/16 A2989 RMK AO2 SLP111 P0002 T01670156
KVTN 200038Z AUTO 02012G20KT 2SM -RA BR OVC005 17/16 A2990 RMK AO2 P0002 T01670156
KVTN 200031Z AUTO 02016G20KT 1 3/4SM -RA BR OVC005 17/16 A2990 RMK AO2 P0001 T01670161
KVTN 200024Z AUTO 02010KT 2SM -RA BR OVC005 17/16 A2991 RMK AO2 P0001 T01670161
KVTN 192352Z AUTO 04014G20KT 1 1/4SM -RA BR OVC004 18/18 A2987 RMK AO2 RAB40 SLP103 P0000 60002 T01830178 10194 20183 58006
KVTN 192345Z AUTO 03011KT 1 1/4SM -RA BR OVC004 19/18 A2987 RMK AO2 RAB40 P0000 T01890178
KVTN 192335Z AUTO 03011KT 1 3/4SM BR OVC005 19/18 A2988 RMK AO2 T01890183
KVTN 192252Z AUTO 05010KT 10SM OVC006 19/18 A2988 RMK AO2 SLP105 T01940183
KVTN 192152Z AUTO 03010KT 9SM OVC006 19/18 A2988 RMK AO2 SLP104 T01940183
KVTN 192118Z AUTO 06011G20KT 10SM OVC007 19/18 A2988 RMK AO2 T01940183
KVTN 192052Z AUTO 06011KT 9SM BKN008 OVC012 19/18 A2989 RMK AO2 RAE06 CIG 005V011 SLP107 P0001 60002 T01940183 58009
KVTN 192043Z AUTO 05009KT 10SM BKN008 OVC012 19/18 A2989 RMK AO2 RAE06 CIG 004V011 P0001 T01940183
KVTN 192021Z AUTO 06012KT 4SM BR BKN005 OVC014 19/18 A2989 RMK AO2 RAE06 CIG 003V009 P0001 T01890183
KVTN 192014Z AUTO 06013KT 2 1/2SM BR BKN005 OVC010 19/18 A2989 RMK AO2 RAE06 CIG 003V007 P0001 T01940183
KVTN 192000Z AUTO 05012KT 1 1/4SM -RA BR BKN005 OVC010 19/18 A2989 RMK AO2 P0001 T01940183
KVTN 191952Z AUTO 06010KT 1SM -RA BR BKN005 OVC010 19/18 A2990 RMK AO2 LTG DSNT E RAB49 SLP115 P0000 T01940183
KVTN 191936Z AUTO 04007KT 1 3/4SM BR BKN004 OVC009 19/18 A2992 RMK AO2 LTG DSNT SE T01890183
KVTN 191912Z AUTO 05010G18KT 2SM BR OVC005 19/18 A2990 RMK AO2 LTG DSNT S CIG 003V008 T01890183
KVTN 191852Z AUTO 05011KT 1 3/4SM BR OVC006 19/18 A2991 RMK AO2 RAB28E40 SLP116 P0001 T01890183
KVTN 191832Z AUTO 05011KT 1 1/4SM -RA BR OVC007 19/18 A2992 RMK AO2 RAB28 P0000 T01890183
KVTN 191811Z AUTO 07010KT 2 1/2SM BR OVC007 19/18 A2992 RMK AO2 CIG 005V009 T01890178
KVTN 191804Z AUTO 06011KT 1 3/4SM BR OVC007 19/18 A2992 RMK AO2 T01890178
KVTN 191752Z AUTO 05013KT 2 1/2SM BR OVC006 19/18 A2992 RMK AO2 SLP120 60008 T01890178 10189 20178 55009
KVTN 191733Z AUTO 05009KT 10SM OVC005 19/18 A2992 RMK AO2 T01890178
KVTN 191652Z AUTO 04012KT 10SM OVC004 18/18 A2991 RMK AO2 RAE17 TSE16 SLP120 P0000 T01830178
KVTN 191622Z AUTO 03011KT 8SM OVC005 18/18 A2992 RMK AO2 LTG DSNT NE RAE17 TSE16 P0000 T01830178
KVTN 191614Z AUTO 03010KT 9SM -TSRA OVC005 18/18 A2992 RMK AO2 P0000 T01830178
KVTN 191552Z AUTO 03009KT 5SM -TSRA BR OVC004 18/18 A2993 RMK AO2 WSHFT 1508 LTG DSNT N AND NE RAB04E20B28 TSB04E19B51 SLP126 P0003 T01830178
KVTN 191546Z AUTO 03011G21KT 4SM VCTS -RA BR BKN004 OVC013 18/17 A2991 RMK AO2 WSHFT 1508 LTG DSNT NW-NE RAB04E20B28 TSB04E19 P0003
KVTN 191525Z AUTO 06016G23KT 8SM BKN005 OVC014 18/18 A2988 RMK AO2 WSHFT 1508 LTG DSNT N AND NW RAB04E20 TSB04E19 P0001 T01830178
KVTN 191519Z AUTO 06015G20KT 4SM VCTS -RA BR BKN005 OVC014 18/18 A2989 RMK AO2 LTG DSNT N AND NW RAB04 TSB04E19 P0001 T01830178 $
KVTN 191515Z AUTO 04011KT 2 1/2SM -TSRA BR BKN005 OVC014 18/18 A2992 RMK AO2 LTG DSNT N AND NW RAB04 TSB04 P0001 T01830178 $
KVTN 191504Z AUTO 01009KT 2SM -TSRA BR OVC004 18/18 A2994 RMK AO2 LTG DSNT SW-N RAB04 TSB04 P0000 T01830178 $
KVTN 191501Z AUTO 35006KT 3SM VCTS BR OVC004 18/18 A2994 RMK AO2 LTG DSNT SW-N T01830178 $
KVTN 191452Z AUTO 31005KT 3SM BR OVC003 18/18 A2995 RMK AO2 LTG DSNT ALQDS RAB1356E17B35E44 TSE12 CIG 002V006 PRESRR SLP131 P0005 60005 T01830178 51022
KVTN 191445Z AUTO 03007G18KT 2 1/2SM BR OVC003 18/18 A2991 RMK AO2 LTG DSNT ALQDS RAB1356E17B35E44 TSE12 P0005 T01830178
KVTN 191418Z AUTO 07012KT 1 1/4SM BR OVC002 18/18 A2988 RMK AO2 LTG DSNT NE-SE RAB1356E17 TSE12 P0005 T01830178
KVTN 191401Z AUTO 08009G23KT 1 3/4SM +TSRA BR OVC003 18/18 A2990 RMK AO2 LTG DSNT ALQDS RAB1356 P0002 T01830178
KVTN 191352Z AUTO 02004KT 3SM TS BR OVC003 18/18 A2994 RMK AO2 LTG DSNT E-SW TSB50 PRESRR SLP130 T01830178
KVTN 191349Z AUTO 01006KT 4SM VCTS BR OVC003 18/18 A2994 RMK AO2 LTG DSNT E-SW PRESRR
KVTN 191317Z AUTO 05011KT 9SM OVC004 18/18 A2988 RMK AO2 LTG DSNT E AND SE T01830178
KVTN 191252Z AUTO 05010KT 10SM OVC005 18/18 A2988 RMK AO2 LTG DSNT E-S RAE1153B09E39 TSB17E32 SLP103 P0000 T01830178
KVTN 191235Z AUTO 04009KT 10SM -RA OVC005 18/18 A2988 RMK AO2 LTG DSNT E-S RAE1153B09 TSB17E32 CIG 004V010 P0000 T01830178
KVTN 191223Z AUTO 05010KT 10SM -TSRA OVC006 18/17 A2987 RMK AO2 LTG DSNT E-SW RAE1153B09 TSB17 P0000 T01830172
KVTN 191158Z AUTO 04007KT 10SM VCTS OVC006 18/17 A2988 RMK AO2 LTG DSNT ALQDS RAE53 CIG 003V010 P0000 T01830172
KVTN 191152Z AUTO 03010KT 10SM -RA BKN004 OVC009 18/17 A2988 RMK AO2 LTG DSNT ALQDS RAB22 TSB23E38 CIG 003V007 SLP102 P0006 60031 70031 T01830172 10183 20167 53012
KVTN 191144Z AUTO 04011KT 5SM VCTS -RA BR OVC004 18/18 A2987 RMK AO2 LTG DSNT ALQDS RAB22 TSB23E38 CIG 003V007 P0006 T01830178
KVTN 191129Z AUTO 34008KT 6SM TSRA BR OVC004 18/17 A2991 RMK AO2 LTG DSNT ALQDS RAB22 TSB23 P0002 T01830172
KVTN 191122Z AUTO 32006KT 8SM VCTS -RA OVC004 18/18 A2991 RMK AO2 LTG DSNT ALQDS RAB22 PRESRR P0000 T01830178
KVTN 191117Z AUTO VRB05KT 9SM OVC005 18/18 A2988 RMK AO2 LTG DSNT S-NW PRESRR T01830178
KVTN 191052Z AUTO 11013G24KT 10SM VCTS BKN005 18/17 A2983 RMK AO2 LTG DSNT NE AND SW AND W SLP085 T01780172
KVTN 191049Z AUTO 11014G24KT 10SM BKN005 18/17 A2983 RMK AO2 LTG DSNT NE AND W
KVTN 191024Z AUTO 13013KT 10SM FEW005 SCT100 18/17 A2984 RMK AO2 LTG DSNT ALQDS T01780172
KVTN 191016Z AUTO 12011KT 10SM SCT100 18/17 A2984 RMK AO2 LTG DSNT ALQDS T01780172
KVTN 190952Z AUTO 14014KT 10SM VCTS FEW028 BKN090 BKN110 18/17 A2984 RMK AO2 PK WND 32026/0914 WSHFT 0918 LTG DSNT NW-E RAE0856B14E43 TSE38 SLP089 P0012 T01780172
KVTN 190938Z AUTO 11012KT 6SM VCTS -RA BR FEW005 BKN065 OVC110 18/17 A2984 RMK AO2 PK WND 32026/0914 WSHFT 0918 LTG DSNT NW-E RAE0856B14 TSE38 P0012 T01780172
KVTN 190932Z AUTO 12014KT 4SM +TSRA BR SCT005 BKN029 OVC085 18/17 A2985 RMK AO2 PK WND 32026/0914 WSHFT 0918 LTG DSNT NW-E RAE0856B14 PRESFR P0012 T01780172
KVTN 190924Z AUTO 09012G19KT 7SM TSRA SCT005 BKN065 OVC085 18/17 A2987 RMK AO2 PK WND 32026/0914 LTG DSNT NW-E RAE0856B14 P0002 T01780172
KVTN 190859Z AUTO 08011KT 3SM TS BR BKN003 BKN007 OVC085 18/17 A2986 RMK AO2 LTG DSNT E AND W AND NW RAE56 P0000 T01780172
KVTN 190856Z AUTO 09013KT 1 1/4SM TS BR OVC003 18/17 A2986 RMK AO2 LTG DSNT ALQDS RAE56 P0000 T01780172
KVTN 190852Z AUTO 11010KT 3/4SM -TSRA BR VV003 18/17 A2987 RMK AO2 WSHFT 0837 LTG DSNT ALQDS RAB26 TSB17 SLP100 P0013 60013 T01780172 56018
KVTN 190823Z AUTO 35003KT 1/4SM TS FG VV002 17/17 A2990 RMK AO2 LTG DSNT W TSB17 T01720172
KVTN 190803Z AUTO 00000KT 1/4SM VCTS FG VV002 17/17 A2989 RMK AO2 LTG DSNT SW T01720167
KVTN 190752Z AUTO 04006KT 1/4SM FG VV002 17/17 A2989 RMK AO2 SLP106 T01720167
KVTN 190709Z AUTO 09006KT 3/4SM BR OVC003 17/16 A2990 RMK AO2 T01670161
KVTN 190704Z AUTO 07004KT 1 3/4SM BR OVC003 17/16 A2991 RMK AO2 LTG DSNT S T01670161
KVTN 190652Z AUTO 01006KT 6SM BR OVC003 17/16 A2991 RMK AO2 LTG DSNT S SLP116 T01720161
KVTN 190632Z AUTO 08006KT 10SM OVC004 17/16 A2990 RMK AO2 PRESFR T01720156
KVTN 190602Z AUTO 11003KT 10SM BKN005 OVC010 17/15 A2993 RMK AO2 T01670150
KVTN 190552Z AUTO 05003KT 10SM OVC010 17/15 A2993 RMK AO2 CIG 006V013 SLP126 T01670150 10217 20156 402390144 58002
KVTN 190528Z AUTO 06006KT 10SM BKN012 16/14 A2992 RMK AO2 T01610144
KVTN 190452Z AUTO 00000KT 10SM FEW033 SCT110 16/14 A2997 RMK AO2 SLP139 T01610144
KVTN 190352Z AUTO 07004KT 10SM CLR 16/14 A2994 RMK AO2 SLP132 T01560139
KVTN 190252Z AUTO 06005KT 10SM CLR 16/14 A2994 RMK AO2 SLP130 T01610139 53006
KVTN 190152Z AUTO 08005KT 10SM CLR 17/14 A2993 RMK AO2 SLP125 T01720139
KVTN 190052Z AUTO 10008KT 10SM CLR 19/14 A2992 RMK AO2 SLP122 T01940139
KVTN 182352Z AUTO 12012KT 10SM CLR 22/14 A2992 RMK AO2 SLP117 T02220139 10239 20172 58013
KVTN 182252Z AUTO 10005KT 10SM CLR 23/13 A2993 RMK AO2 SLP122 T02330133
KVTN 182152Z AUTO VRB04KT 10SM CLR 23/13 A2994 RMK AO2 SLP123 T02330133